Time;durP1;ratioP1;P1;durP2;ratioP2;P2;SDS_P1;SDS_P2;PMS_P1;PMS_P2;Temp;Humidity;BMP_temperature;BMP_pressure;BME280_temperature;BME280_humidity;BME280_pressure;Samples;Min_cycle;Max_cycle;Signal;HPM_P1;HPM_P2
2022/07/02 00:01:56;;;;;;;1999.90;999.90;;;;;;;15.84;68.68;96052.22;5048658;28;20024;-68
2022/07/02 00:04:26;;;;;;;1999.90;999.90;;;;;;;16.13;68.94;96092.97;5049697;28;20029;-67
2022/07/02 00:06:52;;;;;;;1999.90;999.90;;;;;;;16.04;69.05;96080.31;5049832;28;20029;-67
2022/07/02 00:09:18;;;;;;;1999.90;999.90;;;;;;;16.08;68.99;96094.69;5047671;28;20086;-67
2022/07/02 00:11:44;;;;;;;1999.90;999.90;;;;;;;15.97;68.71;96079.19;5041575;28;20029;-68
2022/07/02 00:14:09;;;;;;;1999.90;999.90;;;;;;;15.95;68.96;96082.22;5044329;28;20032;-67
2022/07/02 00:16:35;;;;;;;1999.90;999.90;;;;;;;16.02;68.99;96089.78;5050013;28;20059;-67
2022/07/02 00:19:01;;;;;;;1999.90;999.90;;;;;;;15.99;68.95;96085.84;5048788;28;20366;-67
2022/07/02 00:21:27;;;;;;;1999.90;999.90;;;;;;;15.97;68.74;96093.44;5049380;28;20071;-68
2022/07/02 00:23:53;;;;;;;1999.90;999.90;;;;;;;15.92;68.98;96082.03;5050210;28;20032;-68
2022/07/02 00:26:28;;;;;;;1999.90;999.90;;;;;;;15.79;68.91;96070.38;5049057;28;20025;-67
2022/07/02 00:29:01;;;;;;;1999.90;999.90;;;;;;;15.92;68.94;96093.59;5049363;28;20107;-67
2022/07/02 00:31:27;;;;;;;1999.90;999.90;;;;;;;15.75;68.85;96070.19;5063362;28;20032;-67
2022/07/02 00:33:54;;;;;;;1999.90;999.90;;;;;;;15.73;68.79;96072.41;5048141;28;20031;-68
2022/07/02 00:36:22;;;;;;;1999.90;999.90;;;;;;;15.63;68.82;96067.34;5049351;28;20097;-68
2022/07/02 00:38:51;;;;;;;1999.90;999.90;;;;;;;15.60;68.63;96055.31;5048137;28;20047;-69
2022/07/02 00:41:18;;;;;;;1999.90;999.90;;;;;;;15.72;69.02;96078.88;5049578;28;20033;-68
2022/07/02 00:43:45;;;;;;;1999.90;999.90;;;;;;;15.81;69.06;96097.66;5048806;28;20025;-67
2022/07/02 00:46:11;;;;;;;1999.90;999.90;;;;;;;15.62;69.24;96059.59;5037375;28;20079;-68
2022/07/02 00:48:37;;;;;;;1999.90;999.90;;;;;;;15.64;69.45;96060.09;5047587;28;20017;-69
2022/07/02 00:51:02;;;;;;;1999.90;999.90;;;;;;;15.64;69.62;96060.88;5048888;28;20032;-68
2022/07/02 00:53:28;;;;;;;1999.90;999.90;;;;;;;15.72;69.40;96076.19;5048820;28;20032;-67
2022/07/02 00:55:57;;;;;;;1999.90;999.90;;;;;;;15.76;69.57;96087.84;5048951;28;20029;-68
2022/07/02 00:58:23;;;;;;;1999.90;999.90;;;;;;;15.59;70.12;96051.06;5048784;28;20033;-68
2022/07/02 01:00:48;;;;;;;1999.90;999.90;;;;;;;15.72;70.30;96075.41;5048199;28;20101;-68
2022/07/02 01:03:17;;;;;;;1999.90;999.90;;;;;;;15.77;69.80;96077.94;5048760;28;20041;-67
2022/07/02 01:05:43;;;;;;;1999.90;999.90;;;;;;;15.79;69.76;96075.72;5048089;28;20024;-67
2022/07/02 01:10:54;;;;;;;1999.90;999.90;;;;;;;15.60;69.35;96065.25;5049600;28;20063;-68
2022/07/02 01:13:20;;;;;;;1999.90;999.90;;;;;;;15.76;69.70;96081.72;5046339;28;20029;-68
2022/07/02 01:15:45;;;;;;;1999.90;999.90;;;;;;;15.60;69.89;96062.56;5047598;28;20074;-68
2022/07/02 01:18:17;;;;;;;1999.90;999.90;;;;;;;15.71;69.59;96066.56;5049971;28;20070;-68
2022/07/02 01:20:43;;;;;;;1999.90;999.90;;;;;;;15.71;69.92;96071.13;5046985;28;20428;-68
2022/07/02 01:23:08;;;;;;;1999.90;999.90;;;;;;;15.62;69.54;96056.91;5047508;28;20041;-67
2022/07/02 01:25:33;;;;;;;1999.90;999.90;;;;;;;15.70;69.59;96061.50;5048937;28;20025;-68
2022/07/02 01:27:58;;;;;;;1999.90;999.90;;;;;;;15.68;68.97;96069.09;5048133;28;20033;-68
2022/07/02 01:30:24;;;;;;;1999.90;999.90;;;;;;;15.63;68.83;96061.97;5046311;28;20094;-68
2022/07/02 01:32:49;;;;;;;1999.90;999.90;;;;;;;15.66;69.18;96066.72;5048504;28;20032;-68
2022/07/02 01:35:14;;;;;;;1999.90;999.90;;;;;;;15.54;69.10;96043.16;5047654;28;20060;-68
2022/07/02 01:37:41;;;;;;;1999.90;999.90;;;;;;;15.67;68.77;96067.53;5047977;28;20028;-67
2022/07/02 01:40:08;;;;;;;1999.90;999.90;;;;;;;15.66;68.93;96069.41;5048379;28;20025;-68
2022/07/02 01:42:33;;;;;;;1999.90;999.90;;;;;;;15.46;68.84;96043.16;5048230;28;20013;-67
2022/07/02 01:44:58;;;;;;;1999.90;999.90;;;;;;;15.58;69.14;96065.56;5046161;28;20025;-67
2022/07/02 01:47:24;;;;;;;1999.90;999.90;;;;;;;15.38;69.00;96036.66;5048649;28;20628;-67
2022/07/02 01:49:49;;;;;;;1999.90;999.90;;;;;;;15.45;68.76;96046.91;5047894;28;20029;-67
2022/07/02 01:52:15;;;;;;;1999.90;999.90;;;;;;;15.52;68.88;96061.47;5045560;28;20021;-67
2022/07/02 01:54:41;;;;;;;1999.90;999.90;;;;;;;15.35;69.26;96034.59;5039181;28;20087;-68
2022/07/02 01:57:07;;;;;;;1999.90;999.90;;;;;;;15.48;68.72;96057.81;5042146;28;20032;-67
2022/07/02 01:59:34;;;;;;;1999.90;999.90;;;;;;;15.33;68.91;96040.28;5046507;28;20215;-68
2022/07/02 02:01:59;;;;;;;1999.90;999.90;;;;;;;15.20;68.77;96027.81;5046899;28;20025;-68
2022/07/02 02:04:24;;;;;;;1999.90;999.90;;;;;;;15.35;69.11;96056.03;5048190;28;20124;-67
2022/07/02 02:06:50;;;;;;;1999.90;999.90;;;;;;;14.84;69.18;95979.75;5048041;28;20048;-67
2022/07/02 02:09:15;;;;;;;1999.90;999.90;;;;;;;15.27;69.02;96049.56;5048250;28;20127;-67
2022/07/02 02:11:40;;;;;;;1999.90;999.90;;;;;;;15.24;69.05;96044.03;5034861;28;20030;-67
2022/07/02 02:14:06;;;;;;;1999.90;999.90;;;;;;;15.33;68.93;96063.63;5047705;28;20094;-67
2022/07/02 02:16:31;;;;;;;1999.90;999.90;;;;;;;15.11;68.76;96031.56;5052521;28;20039;-67
2022/07/02 02:18:58;;;;;;;1999.90;999.90;;;;;;;15.27;69.13;96064.88;5051690;28;20025;-67
2022/07/02 02:21:26;;;;;;;1999.90;999.90;;;;;;;15.25;69.12;96061.69;5050754;28;20021;-68
2022/07/02 02:23:52;;;;;;;1999.90;999.90;;;;;;;15.20;69.06;96053.78;5050301;28;20028;-67
2022/07/02 02:26:17;;;;;;;1999.90;999.90;;;;;;;15.13;68.93;96048.88;5049812;28;20081;-67
2022/07/02 02:28:42;;;;;;;1999.90;999.90;;;;;;;15.21;68.96;96061.53;5051529;28;20115;-68
2022/07/02 02:31:08;;;;;;;1999.90;999.90;;;;;;;15.20;69.02;96065.31;5050120;28;20100;-67
2022/07/02 02:33:33;;;;;;;1999.90;999.90;;;;;;;15.13;68.75;96061.50;5052480;28;20024;-68
2022/07/02 02:35:58;;;;;;;1999.90;999.90;;;;;;;15.09;68.68;96059.44;5051898;28;20767;-67
2022/07/02 02:38:25;;;;;;;1999.90;999.90;;;;;;;15.00;69.00;96053.28;5051937;28;20040;-68
2022/07/02 02:40:50;;;;;;;1999.90;999.90;;;;;;;15.04;68.66;96061.47;5051745;28;20036;-67
2022/07/02 02:43:15;;;;;;;1999.90;999.90;;;;;;;15.02;69.39;96059.09;5051885;28;20025;-67
2022/07/02 02:45:41;;;;;;;1999.90;999.90;;;;;;;14.99;69.37;96062.38;5048664;28;20534;-67
2022/07/02 02:48:06;;;;;;;1999.90;999.90;;;;;;;14.97;69.05;96061.91;5043544;28;20060;-68
2022/07/02 02:50:31;;;;;;;1999.90;999.90;;;;;;;14.90;68.91;96053.53;5052259;28;20111;-67
2022/07/02 02:52:57;;;;;;;1999.90;999.90;;;;;;;14.82;68.68;96046.25;5051825;28;20690;-67
2022/07/02 02:55:22;;;;;;;1999.90;999.90;;;;;;;14.84;68.84;96049.41;5051109;28;20124;-67
2022/07/02 02:57:47;;;;;;;1999.90;999.90;;;;;;;14.76;69.00;96039.44;5047587;28;20103;-67
2022/07/02 03:00:13;;;;;;;1999.90;999.90;;;;;;;14.86;68.77;96060.63;5045139;28;20025;-68
2022/07/02 03:02:38;;;;;;;1999.90;999.90;;;;;;;14.72;69.54;96038.47;5052282;28;20079;-63
2022/07/02 03:05:04;;;;;;;1999.90;999.90;;;;;;;14.93;70.07;96077.03;5051126;28;20021;-63
2022/07/02 03:07:29;;;;;;;1999.90;999.90;;;;;;;15.00;69.65;96079.28;5047968;28;20526;-63
2022/07/02 03:09:54;;;;;;;1999.90;999.90;;;;;;;14.95;69.59;96064.13;5034478;28;20044;-63
2022/07/02 03:12:20;;;;;;;1999.90;999.90;;;;;;;15.11;69.12;96088.63;5051964;28;20064;-63
2022/07/02 03:14:45;;;;;;;1999.90;999.90;;;;;;;15.11;69.37;96079.78;5065106;22;20016;-64
2022/07/02 03:17:10;;;;;;;1999.90;999.90;;;;;;;15.15;69.08;96078.88;5069434;28;20039;-64
2022/07/02 03:19:37;;;;;;;1999.90;999.90;;;;;;;15.19;68.84;96081.69;5051438;28;20068;-65
2022/07/02 03:22:02;;;;;;;1999.90;999.90;;;;;;;15.22;68.89;96089.91;5049037;28;20443;-64
2022/07/02 03:24:27;;;;;;;1999.90;999.90;;;;;;;15.19;68.74;96089.72;5048891;28;20108;-65
2022/07/02 03:26:53;;;;;;;1999.90;999.90;;;;;;;15.11;68.48;96077.91;5049603;28;20025;-64
2022/07/02 03:29:18;;;;;;;1999.90;999.90;;;;;;;15.05;68.59;96082.59;5049835;28;20469;-65
2022/07/02 03:31:43;;;;;;;1999.90;999.90;;;;;;;15.09;68.36;96083.53;5050466;28;20123;-64
2022/07/02 03:34:09;;;;;;;1999.90;999.90;;;;;;;15.03;68.65;96078.66;5050730;28;20025;-64
2022/07/02 03:36:34;;;;;;;1999.90;999.90;;;;;;;15.06;68.44;96080.72;5051387;28;20036;-64
2022/07/02 03:38:59;;;;;;;1999.90;999.90;;;;;;;15.00;68.50;96082.75;5048421;28;20497;-64
2022/07/02 03:41:25;;;;;;;1999.90;999.90;;;;;;;14.95;68.75;96080.19;5051063;28;20590;-64
2022/07/02 03:43:50;;;;;;;1999.90;999.90;;;;;;;15.17;68.93;96094.63;5050712;28;20028;-64
2022/07/02 03:46:16;;;;;;;1999.90;999.90;;;;;;;15.22;68.37;96092.59;5048587;28;20029;-65
2022/07/02 03:48:43;;;;;;;1999.90;999.90;;;;;;;15.15;68.97;96078.06;5051569;28;20055;-64
2022/07/02 03:51:08;;;;;;;1999.90;999.90;;;;;;;15.19;69.28;96079.81;5048944;28;20413;-65
2022/07/02 03:53:33;;;;;;;1999.90;999.90;;;;;;;15.32;68.49;96080.81;5048275;28;20043;-65
2022/07/02 03:55:59;;;;;;;1999.90;999.90;;;;;;;15.51;68.61;96099.31;5050317;28;20020;-64
2022/07/02 03:58:24;;;;;;;1999.90;999.90;;;;;;;15.43;68.13;96082.09;5049672;28;20028;-64
2022/07/02 04:00:49;;;;;;;1999.90;999.90;;;;;;;15.71;67.87;96100.63;5048308;28;20111;-64
2022/07/02 04:03:15;;;;;;;1999.90;999.90;;;;;;;15.62;68.53;96095.25;5050261;28;20508;-64
2022/07/02 04:05:40;;;;;;;1999.90;999.90;;;;;;;15.80;67.43;96094.19;5048733;28;20079;-65
2022/07/02 04:08:06;;;;;;;1999.90;999.90;;;;;;;16.32;66.54;96106.84;5048744;28;20036;-64
2022/07/02 04:10:31;;;;;;;1999.90;999.90;;;;;;;16.61;65.20;96068.59;5049156;28;20036;-64
2022/07/02 04:12:56;;;;;;;1999.90;999.90;;;;;;;17.29;64.73;96103.66;5050425;28;20120;-64
2022/07/02 04:15:22;;;;;;;1999.90;999.90;;;;;;;17.64;63.05;96098.88;5048286;28;20742;-64
2022/07/02 04:17:47;;;;;;;1999.90;999.90;;;;;;;17.95;62.31;96103.16;5049518;28;20024;-64
2022/07/02 04:20:12;;;;;;;1999.90;999.90;;;;;;;18.15;61.53;96097.00;5048974;28;20040;-64
2022/07/02 04:22:38;;;;;;;1999.90;999.90;;;;;;;18.29;60.86;96086.75;5049679;28;20036;-64
2022/07/02 04:25:03;;;;;;;1999.90;999.90;;;;;;;18.72;60.56;96090.19;5049464;28;20064;-64
2022/07/02 04:27:29;;;;;;;1999.90;999.90;;;;;;;18.93;59.02;96093.59;5049470;28;20036;-65
2022/07/02 04:29:54;;;;;;;1999.90;999.90;;;;;;;19.09;58.34;96086.47;5047403;28;20020;-64
2022/07/02 04:32:19;;;;;;;1999.90;999.90;;;;;;;19.11;57.69;96095.00;5047491;28;20135;-65
2022/07/02 04:34:45;;;;;;;1999.90;999.90;;;;;;;19.56;57.00;96104.13;5050690;28;20142;-65
2022/07/02 04:37:10;;;;;;;1999.90;999.90;;;;;;;19.73;56.47;96088.50;5048831;28;20191;-64
2022/07/02 04:39:35;;;;;;;1999.90;999.90;;;;;;;19.58;55.82;96067.56;5050161;28;20048;-65
2022/07/02 04:42:01;;;;;;;1999.90;999.90;;;;;;;19.86;55.57;96091.19;5048303;28;20029;-64
2022/07/02 04:44:26;;;;;;;1999.90;999.90;;;;;;;19.88;54.96;96086.25;5048952;28;20025;-65
2022/07/02 04:46:52;;;;;;;1999.90;999.90;;;;;;;20.14;54.47;96097.44;5047838;28;20032;-65
2022/07/02 04:49:18;;;;;;;1999.90;999.90;;;;;;;20.03;54.07;96074.75;5049054;28;20465;-65
2022/07/02 04:51:43;;;;;;;1999.90;999.90;;;;;;;20.09;54.30;96092.28;5048970;28;20367;-65
2022/07/02 04:54:08;;;;;;;1999.90;999.90;;;;;;;20.15;54.15;96093.59;5048332;28;20028;-65
2022/07/02 04:56:34;;;;;;;1999.90;999.90;;;;;;;20.22;53.36;96068.72;5048471;28;20091;-65
2022/07/02 04:58:59;;;;;;;1999.90;999.90;;;;;;;20.35;53.75;96081.03;5048245;28;20114;-65
2022/07/02 05:01:24;;;;;;;1999.90;999.90;;;;;;;20.44;53.01;96089.81;5047868;28;20540;-65
2022/07/02 05:03:51;;;;;;;1999.90;999.90;;;;;;;20.34;53.03;96090.28;5048638;28;20488;-65
2022/07/02 05:06:18;;;;;;;1999.90;999.90;;;;;;;20.55;52.97;96108.25;5048178;28;20056;-65
2022/07/02 05:08:44;;;;;;;1999.90;999.90;;;;;;;20.47;52.58;96099.97;5048129;28;20095;-64
2022/07/02 05:11:09;;;;;;;1999.90;999.90;;;;;;;20.63;52.91;96108.13;5047333;28;20024;-65
2022/07/02 05:13:34;;;;;;;1999.90;999.90;;;;;;;20.51;52.62;96094.63;5048762;28;20071;-65
2022/07/02 05:16:00;;;;;;;1999.90;999.90;;;;;;;20.38;52.08;96093.88;5046927;28;20439;-64
2022/07/02 05:18:25;;;;;;;1999.90;999.90;;;;;;;20.37;52.39;96089.63;5049042;28;20116;-65
2022/07/02 05:20:51;;;;;;;1999.90;999.90;;;;;;;20.56;52.24;96096.31;5048444;28;20032;-65
2022/07/02 05:23:16;;;;;;;1999.90;999.90;;;;;;;20.54;51.63;96106.69;5048738;28;20474;-64
2022/07/02 05:25:42;;;;;;;1999.90;999.90;;;;;;;20.35;52.00;96096.47;5048596;28;20041;-65
2022/07/02 05:28:07;;;;;;;1999.90;999.90;;;;;;;20.40;52.04;96093.53;5048609;28;20059;-65
2022/07/02 05:30:32;;;;;;;1999.90;999.90;;;;;;;20.29;52.17;96101.34;5045644;28;20029;-65
2022/07/02 05:32:58;;;;;;;1999.90;999.90;;;;;;;20.37;51.94;96105.00;5049400;28;20500;-65
2022/07/02 05:35:23;;;;;;;1999.90;999.90;;;;;;;20.44;51.90;96083.63;5048511;28;20024;-64
2022/07/02 05:37:48;;;;;;;1999.90;999.90;;;;;;;20.54;51.25;96112.88;5047777;28;20032;-65
2022/07/02 05:40:14;;;;;;;1999.90;999.90;;;;;;;20.41;52.12;96103.19;5047221;28;20947;-65
2022/07/02 05:42:39;;;;;;;1999.90;999.90;;;;;;;20.72;50.80;96078.22;5048021;28;20019;-65
2022/07/02 05:45:05;;;;;;;1999.90;999.90;;;;;;;20.57;51.33;96081.66;5048180;28;20123;-65
2022/07/02 05:47:30;;;;;;;1999.90;999.90;;;;;;;20.70;51.48;96108.31;5039285;28;20033;-65
2022/07/02 05:49:56;;;;;;;1999.90;999.90;;;;;;;20.57;50.82;96082.44;5040735;28;20021;-65
2022/07/02 05:52:21;;;;;;;1999.90;999.90;;;;;;;20.63;51.58;96100.00;5048785;28;20116;-65
2022/07/02 05:54:47;;;;;;;1999.90;999.90;;;;;;;20.67;51.22;96098.16;5047220;28;20028;-65
2022/07/02 05:57:12;;;;;;;1999.90;999.90;;;;;;;20.44;51.74;96083.63;5044952;28;20526;-65
2022/07/02 05:59:38;;;;;;;1999.90;999.90;;;;;;;20.60;51.89;96097.19;5046900;28;20033;-66
2022/07/02 06:02:04;;;;;;;1999.90;999.90;;;;;;;20.40;51.87;96075.41;5047188;28;20104;-66
2022/07/02 06:04:29;;;;;;;1999.90;999.90;;;;;;;20.21;51.95;96064.44;5047200;28;20063;-73
2022/07/02 06:09:39;;;;;;;1999.90;999.90;;;;;;;20.60;52.62;96116.91;5046842;28;20035;-68
2022/07/02 06:12:05;;;;;;;1999.90;999.90;;;;;;;20.34;53.24;96087.59;5048592;28;20108;-68
2022/07/02 06:14:30;;;;;;;1999.90;999.90;;;;;;;20.48;53.15;96084.53;5048203;28;20086;-68
2022/07/02 06:16:55;;;;;;;1999.90;999.90;;;;;;;20.39;53.45;96046.81;5045648;28;20028;-68
2022/07/02 06:19:22;;;;;;;1999.90;999.90;;;;;;;20.90;53.46;96124.66;5048839;28;20036;-68
2022/07/02 06:21:47;;;;;;;1999.90;999.90;;;;;;;20.23;53.51;96057.56;5047620;28;20029;-70
2022/07/02 06:24:12;;;;;;;1999.90;999.90;;;;;;;20.40;53.51;96098.94;5046382;28;20485;-67
2022/07/02 06:26:38;;;;;;;1999.90;999.90;;;;;;;20.57;53.72;96104.06;5047612;28;20587;-66
2022/07/02 06:29:04;;;;;;;1999.90;999.90;;;;;;;20.80;53.73;96106.22;5046926;28;20470;-66
2022/07/02 06:31:30;;;;;;;1999.90;999.90;;;;;;;20.52;53.43;96063.78;5045258;28;20029;-71
2022/07/02 06:33:55;;;;;;;1999.90;999.90;;;;;;;20.62;53.93;96060.56;5049033;28;20025;-72
2022/07/02 06:36:22;;;;;;;1999.90;999.90;;;;;;;20.90;53.45;96122.75;5046432;28;20055;-71
2022/07/02 06:38:48;;;;;;;1999.90;999.90;;;;;;;20.69;53.94;96117.53;5047448;28;20385;-72
2022/07/02 06:43:58;;;;;;;1999.90;999.90;;;;;;;19.98;55.39;96061.47;5047557;28;20078;-70
2022/07/02 06:46:23;;;;;;;1999.90;999.90;;;;;;;20.23;54.82;96070.28;5038429;28;20037;-70
2022/07/02 06:48:48;;;;;;;1999.90;999.90;;;;;;;20.31;55.07;96063.94;5028688;28;20060;-70
2022/07/02 06:51:14;;;;;;;1999.90;999.90;;;;;;;20.72;54.22;96091.72;5045818;28;20036;-75
2022/07/02 06:53:39;;;;;;;1999.90;999.90;;;;;;;20.43;54.12;96055.03;5048141;28;20029;-70
2022/07/02 06:56:04;;;;;;;1999.90;999.90;;;;;;;20.62;53.64;96044.34;5048052;28;20021;-70
2022/07/02 06:58:30;;;;;;;1999.90;999.90;;;;;;;21.17;53.41;96115.69;5047102;28;20037;-75
2022/07/02 07:00:55;;;;;;;1999.90;999.90;;;;;;;20.63;53.24;96055.97;5045379;28;20017;-72
2022/07/02 07:03:21;;;;;;;1999.90;999.90;;;;;;;20.93;52.83;96094.19;5038832;28;20059;-71
2022/07/02 07:05:47;;;;;;;1999.90;999.90;;;;;;;20.99;53.16;96090.13;5047322;28;20017;-67
2022/07/02 07:08:13;;;;;;;1999.90;999.90;;;;;;;21.12;53.48;96109.75;5042991;28;20044;-70
2022/07/02 07:10:40;;;;;;;1999.90;999.90;;;;;;;20.95;53.31;96075.72;5044755;28;20028;-75
2022/07/02 07:13:05;;;;;;;1999.90;999.90;;;;;;;20.93;54.23;96122.03;5041926;28;20106;-72
2022/07/02 07:15:31;;;;;;;1999.90;999.90;;;;;;;20.56;53.77;96107.91;5040931;28;20466;-71
2022/07/02 07:18:05;;;;;;;1999.90;999.90;;;;;;;20.46;53.76;96111.06;5045683;28;20029;-77
2022/07/02 07:20:32;;;;;;;1999.90;999.90;;;;;;;20.48;53.59;96066.41;5035616;28;20041;-71
2022/07/02 07:22:59;;;;;;;1999.90;999.90;;;;;;;20.70;54.38;96091.28;5035122;28;20029;-70
2022/07/02 07:25:25;;;;;;;1999.90;999.90;;;;;;;20.85;54.17;96095.16;5049594;28;20112;-73
2022/07/02 07:27:51;;;;;;;1999.90;999.90;;;;;;;20.45;53.99;96085.19;5049633;28;20028;-72
2022/07/02 07:30:16;;;;;;;1999.90;999.90;;;;;;;19.87;54.22;96055.75;5049630;28;20397;-72
2022/07/02 07:32:42;;;;;;;1999.90;999.90;;;;;;;19.97;54.64;96108.50;5049150;28;20031;-69
2022/07/02 07:35:08;;;;;;;1999.90;999.90;;;;;;;20.26;55.16;96104.72;5049158;28;20032;-71
2022/07/02 07:37:35;;;;;;;1999.90;999.90;;;;;;;20.55;54.39;96103.63;5050583;28;20540;-72
2022/07/02 07:40:02;;;;;;;1999.90;999.90;;;;;;;20.41;54.06;96095.88;5046494;28;20051;-72
2022/07/02 07:42:27;;;;;;;1999.90;999.90;;;;;;;20.61;54.30;96102.25;5049267;28;20029;-71
2022/07/02 07:44:53;;;;;;;1999.90;999.90;;;;;;;20.77;53.62;96105.78;5048454;28;20025;-71
2022/07/02 07:47:18;;;;;;;1999.90;999.90;;;;;;;20.35;54.54;96094.56;5047129;28;20041;-71
2022/07/02 07:49:44;;;;;;;1999.90;999.90;;;;;;;20.67;53.44;96084.66;5050373;28;20041;-71
2022/07/02 07:52:09;;;;;;;1999.90;999.90;;;;;;;20.30;53.30;96088.59;5048241;28;20093;-70
2022/07/02 07:54:36;;;;;;;1999.90;999.90;;;;;;;20.76;53.36;96104.22;5048718;28;20063;-71
2022/07/02 07:57:02;;;;;;;1999.90;999.90;;;;;;;20.86;52.89;96097.50;5042084;28;20029;-71
2022/07/02 07:59:27;;;;;;;1999.90;999.90;;;;;;;20.93;52.98;96100.41;5049352;28;20478;-71
2022/07/02 08:01:53;;;;;;;1999.90;999.90;;;;;;;20.88;52.64;96099.88;5047947;28;20498;-70
2022/07/02 08:04:18;;;;;;;1999.90;999.90;;;;;;;21.16;52.08;96106.03;5048322;28;20025;-71
2022/07/02 08:06:43;;;;;;;1999.90;999.90;;;;;;;21.29;52.29;96091.28;5048208;28;20036;-72
2022/07/02 08:09:09;;;;;;;1999.90;999.90;;;;;;;21.39;52.25;96094.59;5047972;28;20064;-70
2022/07/02 08:11:34;;;;;;;1999.90;999.90;;;;;;;21.56;51.56;96086.13;5034780;28;20160;-70
2022/07/02 08:13:59;;;;;;;1999.90;999.90;;;;;;;20.83;52.10;96079.28;5037094;28;20025;-70
2022/07/02 08:16:25;;;;;;;1999.90;999.90;;;;;;;21.13;52.03;96089.69;5047007;28;20040;-70
2022/07/02 08:18:50;;;;;;;1999.90;999.90;;;;;;;21.23;52.22;96103.47;5047816;28;20071;-71
2022/07/02 08:21:16;;;;;;;1999.90;999.90;;;;;;;21.38;51.25;96101.16;5041491;28;20156;-70
2022/07/02 08:23:41;;;;;;;1999.90;999.90;;;;;;;20.97;51.84;96100.50;5033602;28;20032;-70
2022/07/02 08:26:07;;;;;;;1999.90;999.90;;;;;;;21.12;51.41;96086.19;5049748;28;20020;-70
2022/07/02 08:28:32;;;;;;;1999.90;999.90;;;;;;;21.61;51.19;96099.41;5048752;28;20029;-73
2022/07/02 08:30:58;;;;;;;1999.90;999.90;;;;;;;21.37;50.71;96092.25;5048739;28;20039;-71
2022/07/02 08:33:24;;;;;;;1999.90;999.90;;;;;;;21.73;50.45;96102.00;5049309;28;20110;-71
2022/07/02 08:35:49;;;;;;;1999.90;999.90;;;;;;;21.47;49.89;96090.94;5045761;28;20518;-73
2022/07/02 08:38:15;;;;;;;1999.90;999.90;;;;;;;21.50;49.24;96096.44;5049480;28;20066;-68
2022/07/02 08:40:45;;;;;;;1999.90;999.90;;;;;;;21.66;49.60;96099.13;5047226;28;20504;-70
2022/07/02 08:43:12;;;;;;;1999.90;999.90;;;;;;;21.80;49.04;96082.41;5047949;28;20013;-73
2022/07/02 08:45:38;;;;;;;1999.90;999.90;;;;;;;21.85;48.44;96084.84;5048757;28;20025;-69
2022/07/02 08:48:07;;;;;;;1999.90;999.90;;;;;;;22.03;48.58;96077.91;5047773;28;20481;-70
2022/07/02 08:50:33;;;;;;;1999.90;999.90;;;;;;;22.08;48.08;96076.06;5048930;28;20024;-70
2022/07/02 08:52:58;;;;;;;1999.90;999.90;;;;;;;22.26;48.22;96069.88;5046590;28;20078;-71
2022/07/02 08:55:24;;;;;;;1999.90;999.90;;;;;;;22.06;47.21;96062.88;5050155;28;20024;-70
2022/07/02 08:57:50;;;;;;;1999.90;999.90;;;;;;;22.27;46.38;96081.53;5047726;28;20048;-70
2022/07/02 09:00:19;;;;;;;1999.90;999.90;;;;;;;22.39;46.77;96083.31;5047592;28;20036;-69
2022/07/02 09:02:45;;;;;;;1999.90;999.90;;;;;;;22.38;47.09;96065.47;5049196;28;20052;-75
2022/07/02 09:05:12;;;;;;;1999.90;999.90;;;;;;;22.36;46.56;96073.16;5046322;28;20032;-71
2022/07/02 09:07:41;;;;;;;1999.90;999.90;;;;;;;22.50;47.02;96078.88;5047041;28;20381;-72
2022/07/02 09:10:09;;;;;;;1999.90;999.90;;;;;;;22.27;47.18;96049.00;5047691;28;20029;-68
2022/07/02 09:12:34;;;;;;;1999.90;999.90;;;;;;;22.25;48.54;96062.91;5048743;28;20090;-69
2022/07/02 09:15:00;;;;;;;1999.90;999.90;;;;;;;22.67;46.85;96070.28;5046003;28;20494;-69
2022/07/02 09:17:25;;;;;;;1999.90;999.90;;;;;;;21.98;48.70;96061.94;5045816;28;20086;-68
2022/07/02 09:19:50;;;;;;;1999.90;999.90;;;;;;;21.60;48.87;96053.72;5047416;28;20028;-68
2022/07/02 09:22:16;;;;;;;1999.90;999.90;;;;;;;21.35;48.70;96053.16;5047183;28;20429;-68
2022/07/02 09:24:43;;;;;;;1999.90;999.90;;;;;;;21.58;48.00;96037.06;5047187;28;20032;-68
2022/07/02 09:27:14;;;;;;;1999.90;999.90;;;;;;;21.36;48.12;96047.38;5046950;28;20031;-68
2022/07/02 09:29:55;;;;;;;1999.90;999.90;;;;;;;21.53;47.50;96063.25;5047075;28;20029;-68
2022/07/02 09:32:21;;;;;;;1999.90;999.90;;;;;;;21.63;48.41;96051.09;5047059;28;20029;-68
2022/07/02 09:34:49;;;;;;;1999.90;999.90;;;;;;;22.31;47.30;96057.97;5048678;28;20071;-68
2022/07/02 09:37:16;;;;;;;1999.90;999.90;;;;;;;22.09;46.88;96055.94;5048056;28;20025;-68
2022/07/02 09:39:43;;;;;;;1999.90;999.90;;;;;;;22.37;47.04;96061.19;5048186;28;20041;-68
2022/07/02 09:42:23;;;;;;;1999.90;999.90;;;;;;;22.88;46.59;96055.53;5047706;28;20028;-68
2022/07/02 09:44:48;;;;;;;1999.90;999.90;;;;;;;22.43;46.33;96065.97;5046202;28;20636;-68
2022/07/02 09:47:14;;;;;;;1999.90;999.90;;;;;;;22.39;45.90;96045.34;5048589;28;20035;-68
2022/07/02 09:49:49;;;;;;;1999.90;999.90;;;;;;;21.92;46.31;96036.25;5046586;28;20032;-69
2022/07/02 09:52:16;;;;;;;1999.90;999.90;;;;;;;21.76;45.69;96001.09;5049040;28;20032;-68
2022/07/02 09:54:42;;;;;;;1999.90;999.90;;;;;;;21.46;47.07;95997.34;5048295;28;20048;-68
2022/07/02 09:57:09;;;;;;;1999.90;999.90;;;;;;;22.44;46.13;96031.50;5047843;28;20023;-69
2022/07/02 09:59:36;;;;;;;1999.90;999.90;;;;;;;22.45;45.80;96024.94;5044077;28;20032;-68
2022/07/02 10:02:01;;;;;;;1999.90;999.90;;;;;;;22.43;43.62;96028.03;5047271;28;20029;-68
2022/07/02 10:04:31;;;;;;;1999.90;999.90;;;;;;;22.26;45.01;96018.38;5047076;28;20052;-68
2022/07/02 10:06:59;;;;;;;1999.90;999.90;;;;;;;22.92;44.93;96018.44;5047718;28;20025;-68
2022/07/02 10:09:25;;;;;;;1999.90;999.90;;;;;;;22.74;43.12;96024.31;5047340;28;20025;-68
2022/07/02 10:11:52;;;;;;;1999.90;999.90;;;;;;;23.22;42.60;96024.75;5047153;28;20075;-68
2022/07/02 10:14:23;;;;;;;1999.90;999.90;;;;;;;23.35;42.44;96019.94;5045758;28;20454;-69
2022/07/02 10:16:50;;;;;;;1999.90;999.90;;;;;;;22.76;42.48;95946.09;5038339;28;20532;-68
2022/07/02 10:19:17;;;;;;;1999.90;999.90;;;;;;;23.02;43.42;96020.56;5031750;28;20098;-68
2022/07/02 10:21:42;;;;;;;1999.90;999.90;;;;;;;22.77;42.72;95991.03;5047368;28;20028;-68
2022/07/02 10:24:09;;;;;;;1999.90;999.90;;;;;;;22.84;42.75;96002.03;5046984;28;20025;-68
2022/07/02 10:26:34;;;;;;;1999.90;999.90;;;;;;;22.82;42.87;96003.53;5047883;28;20491;-68
2022/07/02 10:29:03;;;;;;;1999.90;999.90;;;;;;;23.27;42.88;96016.31;5046415;28;20025;-68
2022/07/02 10:31:35;;;;;;;1999.90;999.90;;;;;;;23.03;42.47;95984.94;5044270;28;20021;-68
2022/07/02 10:34:36;;;;;;;1999.90;999.90;;;;;;;23.31;42.59;96016.38;5050624;28;20488;-68
2022/07/02 10:37:02;;;;;;;1999.90;999.90;;;;;;;23.64;41.86;95995.91;5050414;28;20029;-69
2022/07/02 10:39:41;;;;;;;1999.90;999.90;;;;;;;23.02;42.16;95996.91;5051772;28;20037;-67
2022/07/02 10:42:07;;;;;;;1999.90;999.90;;;;;;;23.17;42.39;95986.28;5051595;28;20560;-68
2022/07/02 10:44:40;;;;;;;1999.90;999.90;;;;;;;23.71;40.68;95985.16;5046084;28;20386;-68
2022/07/02 10:47:17;;;;;;;1999.90;999.90;;;;;;;24.08;40.18;95996.13;5055692;28;20021;-67
2022/07/02 10:49:42;;;;;;;1999.90;999.90;;;;;;;24.12;40.99;95991.50;5041236;28;20029;-68
2022/07/02 10:52:07;;;;;;;1999.90;999.90;;;;;;;23.96;39.58;95982.78;5052037;28;20827;-67
2022/07/02 10:54:33;;;;;;;1999.90;999.90;;;;;;;23.46;39.74;95960.34;5045667;28;20039;-70
2022/07/02 10:56:59;;;;;;;1999.90;999.90;;;;;;;23.87;40.11;95974.91;5042261;28;20036;-68
2022/07/02 10:59:27;;;;;;;1999.90;999.90;;;;;;;23.56;40.43;95995.81;5047989;28;20033;-70